sensor_id;sensor_type;location;lat;lon;timestamp;pressure;altitude;pressure_sealevel;temperature;humidity
13954;BME280;7049;49.444;8.522;2023-02-10T00:02:47;81092.25;;;-3.47;82.00
13954;BME280;7049;49.444;8.522;2023-02-10T00:07:49;81090.16;;;-3.47;81.99
13954;BME280;7049;49.444;8.522;2023-02-10T00:12:51;81096.44;;;-3.47;81.93
13954;BME280;7049;49.444;8.522;2023-02-10T00:17:52;81111.09;;;-3.47;82.28
13954;BME280;7049;49.444;8.522;2023-02-10T00:22:55;81117.38;;;-3.47;82.79
13954;BME280;7049;49.444;8.522;2023-02-10T00:27:56;81129.97;;;-3.47;82.38
13954;BME280;7049;49.444;8.522;2023-02-10T00:32:58;81134.16;;;-3.47;81.60
13954;BME280;7049;49.444;8.522;2023-02-10T00:38:01;81136.25;;;-3.47;81.59
13954;BME280;7049;49.444;8.522;2023-02-10T00:43:02;81142.53;;;-3.47;81.23
13954;BME280;7049;49.444;8.522;2023-02-10T00:48:04;81155.09;;;-3.47;81.47
13954;BME280;7049;49.444;8.522;2023-02-10T00:53:06;81159.28;;;-3.47;81.62
13954;BME280;7049;49.444;8.522;2023-02-10T00:58:08;81171.84;;;-3.47;81.21
13954;BME280;7049;49.444;8.522;2023-02-10T01:03:09;81176.03;;;-3.47;80.92
13954;BME280;7049;49.444;8.522;2023-02-10T01:08:13;81196.97;;;-3.47;81.50
13954;BME280;7049;49.444;8.522;2023-02-10T01:13:15;81205.34;;;-3.47;81.33
13954;BME280;7049;49.444;8.522;2023-02-10T01:18:16;81211.63;;;-3.47;81.29
13954;BME280;7049;49.444;8.522;2023-02-10T01:23:19;81228.41;;;-3.47;81.19
13954;BME280;7049;49.444;8.522;2023-02-10T01:28:20;81234.69;;;-3.47;81.14
13954;BME280;7049;49.444;8.522;2023-02-10T01:33:23;81232.59;;;-3.47;81.50
13954;BME280;7049;49.444;8.522;2023-02-10T01:38:25;81238.88;;;-3.47;81.80
13954;BME280;7049;49.444;8.522;2023-02-10T01:43:27;81238.88;;;-3.47;82.22
13954;BME280;7049;49.444;8.522;2023-02-10T01:48:28;81243.06;;;-3.47;82.72
13954;BME280;7049;49.444;8.522;2023-02-10T01:53:31;81249.34;;;-3.47;82.77
13954;BME280;7049;49.444;8.522;2023-02-10T01:58:34;81251.44;;;-3.47;82.55
13954;BME280;7049;49.444;8.522;2023-02-10T02:03:35;81266.09;;;-3.47;82.36
13954;BME280;7049;49.444;8.522;2023-02-10T02:08:42;81268.19;;;-3.47;83.01
13954;BME280;7049;49.444;8.522;2023-02-10T02:13:53;81270.28;;;-3.47;82.93
13954;BME280;7049;49.444;8.522;2023-02-10T02:18:59;81276.56;;;-3.47;84.01
13954;BME280;7049;49.444;8.522;2023-02-10T02:24:30;81268.19;;;-3.47;83.99
13954;BME280;7049;49.444;8.522;2023-02-10T02:29:56;81276.56;;;-3.47;85.02
13954;BME280;7049;49.444;8.522;2023-02-10T02:35:07;81278.66;;;-3.47;85.33
13954;BME280;7049;49.444;8.522;2023-02-10T02:40:11;81272.38;;;-3.47;86.46
13954;BME280;7049;49.444;8.522;2023-02-10T02:45:16;81284.94;;;-3.47;85.83
13954;BME280;7049;49.444;8.522;2023-02-10T02:50:23;81289.13;;;-3.47;85.04
13954;BME280;7049;49.444;8.522;2023-02-10T02:55:32;81297.53;;;-3.47;85.14
13954;BME280;7049;49.444;8.522;2023-02-10T03:00:36;81301.72;;;-3.47;85.13
13954;BME280;7049;49.444;8.522;2023-02-10T03:05:40;81314.28;;;-3.47;84.70
13954;BME280;7049;49.444;8.522;2023-02-10T03:10:42;81326.84;;;-3.47;84.68
13954;BME280;7049;49.444;8.522;2023-02-10T03:15:43;81324.75;;;-3.47;84.63
13954;BME280;7049;49.444;8.522;2023-02-10T03:20:46;81326.84;;;-3.47;84.57
13954;BME280;7049;49.444;8.522;2023-02-10T03:25:47;81339.41;;;-3.47;83.87
13954;BME280;7049;49.444;8.522;2023-02-10T03:30:49;81335.22;;;-3.47;84.19
13954;BME280;7049;49.444;8.522;2023-02-10T03:35:53;81335.22;;;-3.47;84.20
13954;BME280;7049;49.444;8.522;2023-02-10T03:40:54;81341.50;;;-3.47;84.27
13954;BME280;7049;49.444;8.522;2023-02-10T03:45:59;81343.59;;;-3.47;84.19
13954;BME280;7049;49.444;8.522;2023-02-10T03:51:04;81351.97;;;-3.47;84.41
13954;BME280;7049;49.444;8.522;2023-02-10T03:56:06;81349.88;;;-3.47;84.61
13954;BME280;7049;49.444;8.522;2023-02-10T04:01:09;81360.34;;;-3.47;85.05
13954;BME280;7049;49.444;8.522;2023-02-10T04:06:12;81364.53;;;-3.47;84.90
13954;BME280;7049;49.444;8.522;2023-02-10T04:11:14;81366.63;;;-3.47;84.85
13954;BME280;7049;49.444;8.522;2023-02-10T04:16:17;81372.94;;;-3.47;85.84
13954;BME280;7049;49.444;8.522;2023-02-10T04:21:21;81372.94;;;-3.47;86.09
13954;BME280;7049;49.444;8.522;2023-02-10T04:26:22;81372.94;;;-3.47;86.89
13954;BME280;7049;49.444;8.522;2023-02-10T04:31:24;81368.75;;;-3.47;86.83
13954;BME280;7049;49.444;8.522;2023-02-10T04:36:27;81375.03;;;-3.47;86.53
13954;BME280;7049;49.444;8.522;2023-02-10T04:41:28;81383.41;;;-3.47;85.88
13954;BME280;7049;49.444;8.522;2023-02-10T04:46:29;81377.13;;;-3.47;86.51
13954;BME280;7049;49.444;8.522;2023-02-10T04:51:32;81389.69;;;-3.47;86.68
13954;BME280;7049;49.444;8.522;2023-02-10T04:56:34;81391.78;;;-3.47;87.27
13954;BME280;7049;49.444;8.522;2023-02-10T05:01:35;81393.88;;;-3.47;87.19
13954;BME280;7049;49.444;8.522;2023-02-10T05:06:38;81395.97;;;-3.47;87.57
13954;BME280;7049;49.444;8.522;2023-02-10T05:11:39;81416.91;;;-3.47;86.55
13954;BME280;7049;49.444;8.522;2023-02-10T05:16:41;81425.28;;;-3.47;85.33
13954;BME280;7049;49.444;8.522;2023-02-10T05:21:44;81423.19;;;-3.47;85.96
13954;BME280;7049;49.444;8.522;2023-02-10T05:26:46;81427.38;;;-3.47;87.14
13954;BME280;7049;49.444;8.522;2023-02-10T05:31:47;81439.94;;;-3.47;86.96
13954;BME280;7049;49.444;8.522;2023-02-10T05:36:50;81439.94;;;-3.47;86.65
13954;BME280;7049;49.444;8.522;2023-02-10T05:41:52;81435.75;;;-3.47;87.13
13954;BME280;7049;49.444;8.522;2023-02-10T05:46:53;81454.63;;;-3.47;87.13
13954;BME280;7049;49.444;8.522;2023-02-10T05:51:56;81444.16;;;-3.47;88.19
13954;BME280;7049;49.444;8.522;2023-02-10T05:56:58;81431.56;;;-3.47;90.79
13954;BME280;7049;49.444;8.522;2023-02-10T06:01:59;81429.47;;;-3.47;91.41
13954;BME280;7049;49.444;8.522;2023-02-10T06:07:02;81431.56;;;-3.47;91.85
13954;BME280;7049;49.444;8.522;2023-02-10T06:12:04;81425.28;;;-3.47;92.38
13954;BME280;7049;49.444;8.522;2023-02-10T06:17:06;81427.38;;;-3.47;92.31
13954;BME280;7049;49.444;8.522;2023-02-10T06:22:10;81425.28;;;-3.47;91.56
13954;BME280;7049;49.444;8.522;2023-02-10T06:27:12;81423.19;;;-3.47;91.39
13954;BME280;7049;49.444;8.522;2023-02-10T06:32:14;81419.00;;;-3.47;90.27
13954;BME280;7049;49.444;8.522;2023-02-10T06:37:17;81419.00;;;-3.47;89.95
13954;BME280;7049;49.444;8.522;2023-02-10T06:42:18;81414.81;;;-3.47;89.59
13954;BME280;7049;49.444;8.522;2023-02-10T06:47:20;81410.63;;;-3.47;89.71
13954;BME280;7049;49.444;8.522;2023-02-10T06:52:23;81406.44;;;-3.47;90.16
13954;BME280;7049;49.444;8.522;2023-02-10T06:57:26;81406.44;;;-3.47;90.22
13954;BME280;7049;49.444;8.522;2023-02-10T07:02:28;81402.25;;;-3.47;90.66
13954;BME280;7049;49.444;8.522;2023-02-10T07:07:31;81402.25;;;-3.47;90.00
13954;BME280;7049;49.444;8.522;2023-02-10T07:12:34;81400.16;;;-3.47;90.18
13954;BME280;7049;49.444;8.522;2023-02-10T07:17:35;81385.50;;;-3.47;91.14
13954;BME280;7049;49.444;8.522;2023-02-10T07:22:38;81389.69;;;-3.47;91.17
13954;BME280;7049;49.444;8.522;2023-02-10T07:27:40;81385.50;;;-3.47;91.37
13954;BME280;7049;49.444;8.522;2023-02-10T07:32:41;81381.31;;;-3.47;91.88
13954;BME280;7049;49.444;8.522;2023-02-10T07:37:45;81364.53;;;-3.47;91.74
13954;BME280;7049;49.444;8.522;2023-02-10T07:42:47;81356.16;;;-3.47;92.09
13954;BME280;7049;49.444;8.522;2023-02-10T07:47:48;81335.22;;;-3.47;91.93
13954;BME280;7049;49.444;8.522;2023-02-10T07:52:51;81326.84;;;-3.47;92.01
13954;BME280;7049;49.444;8.522;2023-02-10T07:57:52;81316.38;;;-3.47;92.01
13954;BME280;7049;49.444;8.522;2023-02-10T08:02:54;81320.56;;;-3.47;92.27
13954;BME280;7049;49.444;8.522;2023-02-10T08:07:57;81291.25;;;-3.47;92.65
13954;BME280;7049;49.444;8.522;2023-02-10T08:12:58;81289.13;;;-3.47;92.39
13954;BME280;7049;49.444;8.522;2023-02-10T08:18:00;81284.94;;;-3.47;92.74
13954;BME280;7049;49.444;8.522;2023-02-10T08:23:03;81280.75;;;-3.47;92.95
13954;BME280;7049;49.444;8.522;2023-02-10T08:28:04;81261.91;;;-3.47;92.76
13954;BME280;7049;49.444;8.522;2023-02-10T08:33:06;81255.63;;;-3.47;92.14
13954;BME280;7049;49.444;8.522;2023-02-10T08:38:09;81253.53;;;-3.47;92.30
13954;BME280;7049;49.444;8.522;2023-02-10T08:43:10;81238.88;;;-3.47;92.15
13954;BME280;7049;49.444;8.522;2023-02-10T08:48:12;81217.94;;;-3.47;91.50
13954;BME280;7049;49.444;8.522;2023-02-10T08:53:14;81201.16;;;-3.47;90.84
13954;BME280;7049;49.444;8.522;2023-02-10T08:58:16;81165.56;;;-3.47;89.93
13954;BME280;7049;49.444;8.522;2023-02-10T09:03:18;81125.78;;;-3.47;89.29
13954;BME280;7049;49.444;8.522;2023-02-10T09:08:20;81092.25;;;-3.47;88.29
13954;BME280;7049;49.444;8.522;2023-02-10T09:13:23;81037.81;;;-3.47;89.21
13954;BME280;7049;49.444;8.522;2023-02-10T09:18:24;80985.44;;;-3.47;87.16
13954;BME280;7049;49.444;8.522;2023-02-10T09:23:27;80928.88;;;-3.47;86.06
13954;BME280;7049;49.444;8.522;2023-02-10T09:28:29;80857.69;;;-3.47;84.27
13954;BME280;7049;49.444;8.522;2023-02-10T09:33:30;80805.31;;;-3.47;80.66
13954;BME280;7049;49.444;8.522;2023-02-10T09:38:33;80784.38;;;-3.47;75.28
13954;BME280;7049;49.444;8.522;2023-02-10T09:43:49;80748.78;;;-3.47;76.63
13954;BME280;7049;49.444;8.522;2023-02-10T09:49:03;80692.25;;;-3.47;72.49
13954;BME280;7049;49.444;8.522;2023-02-10T09:54:10;80644.06;;;-3.47;69.46
13954;BME280;7049;49.444;8.522;2023-02-10T09:59:14;80641.97;;;-3.47;66.39
13954;BME280;7049;49.444;8.522;2023-02-10T10:04:20;80629.41;;;-3.47;68.93
13954;BME280;7049;49.444;8.522;2023-02-10T10:09:30;80637.78;;;-3.47;68.64
13954;BME280;7049;49.444;8.522;2023-02-10T10:14:38;80639.88;;;-3.47;67.57
13954;BME280;7049;49.444;8.522;2023-02-10T10:19:50;80652.44;;;-3.47;65.83
13954;BME280;7049;49.444;8.522;2023-02-10T10:25:10;80669.19;;;-3.47;67.01
13954;BME280;7049;49.444;8.522;2023-02-10T10:30:18;80679.66;;;-3.47;67.39
13954;BME280;7049;49.444;8.522;2023-02-10T10:35:23;80669.19;;;-3.47;67.50
13954;BME280;7049;49.444;8.522;2023-02-10T10:40:30;80669.19;;;-3.47;67.33
13954;BME280;7049;49.444;8.522;2023-02-10T10:45:38;80658.72;;;-3.47;68.15
13954;BME280;7049;49.444;8.522;2023-02-10T10:50:42;80648.25;;;-3.47;66.88
13954;BME280;7049;49.444;8.522;2023-02-10T10:55:48;80637.78;;;-3.47;66.14
13954;BME280;7049;49.444;8.522;2023-02-10T11:00:51;80625.22;;;-3.47;65.23
13954;BME280;7049;49.444;8.522;2023-02-10T11:06:01;80614.75;;;-3.47;65.04
13954;BME280;7049;49.444;8.522;2023-02-10T11:11:09;80598.00;;;-3.47;63.85
13954;BME280;7049;49.444;8.522;2023-02-10T11:16:13;80589.63;;;-3.47;63.37
13954;BME280;7049;49.444;8.522;2023-02-10T11:21:16;80589.63;;;-3.47;63.59
13954;BME280;7049;49.444;8.522;2023-02-10T11:26:21;80566.59;;;-3.47;63.09
13954;BME280;7049;49.444;8.522;2023-02-10T11:31:28;80541.44;;;-3.47;61.63
13954;BME280;7049;49.444;8.522;2023-02-10T11:36:35;80539.38;;;-3.47;61.37
13954;BME280;7049;49.444;8.522;2023-02-10T11:41:38;80539.38;;;-3.47;61.21
13954;BME280;7049;49.444;8.522;2023-02-10T11:46:39;80524.69;;;-3.47;61.93
13954;BME280;7049;49.444;8.522;2023-02-10T11:51:50;80520.50;;;-3.47;61.45
13954;BME280;7049;49.444;8.522;2023-02-10T11:57:00;80505.84;;;-3.47;59.79
13954;BME280;7049;49.444;8.522;2023-02-10T12:02:28;80507.94;;;-3.47;59.95
13954;BME280;7049;49.444;8.522;2023-02-10T12:07:41;80468.16;;;-3.47;59.28
13954;BME280;7049;49.444;8.522;2023-02-10T12:12:53;80443.03;;;-3.47;59.03
13954;BME280;7049;49.444;8.522;2023-02-10T12:18:06;80384.41;;;-3.47;57.39
13954;BME280;7049;49.444;8.522;2023-02-10T12:23:37;80357.19;;;-3.47;55.82
13954;BME280;7049;49.444;8.522;2023-02-10T12:28:51;80309.00;;;-3.47;55.14
13954;BME280;7049;49.444;8.522;2023-02-10T12:34:07;80258.75;;;-3.47;51.08
13954;BME280;7049;49.444;8.522;2023-02-10T12:39:16;80212.69;;;-3.47;48.54
13954;BME280;7049;49.444;8.522;2023-02-10T12:44:33;80179.19;;;-3.47;47.06
13954;BME280;7049;49.444;8.522;2023-02-10T12:49:51;80154.06;;;-3.47;47.76
13954;BME280;7049;49.444;8.522;2023-02-10T12:54:57;80143.59;;;-3.47;46.05
13954;BME280;7049;49.444;8.522;2023-02-10T13:00:06;80118.47;;;-3.47;44.98
13954;BME280;7049;49.444;8.522;2023-02-10T13:05:14;80097.53;;;-3.47;44.60
13954;BME280;7049;49.444;8.522;2023-02-10T13:10:25;80091.25;;;-3.47;44.46
13954;BME280;7049;49.444;8.522;2023-02-10T13:15:33;80082.88;;;-3.47;44.40
13954;BME280;7049;49.444;8.522;2023-02-10T13:20:40;80074.50;;;-3.47;43.70
13954;BME280;7049;49.444;8.522;2023-02-10T13:25:54;80053.56;;;-3.47;44.09
13954;BME280;7049;49.444;8.522;2023-02-10T13:31:12;80041.00;;;-3.47;43.98
13954;BME280;7049;49.444;8.522;2023-02-10T13:36:24;80034.72;;;-3.47;43.43
13954;BME280;7049;49.444;8.522;2023-02-10T13:41:31;80038.91;;;-3.47;42.72
13954;BME280;7049;49.444;8.522;2023-02-10T13:46:53;80043.09;;;-3.47;43.05
13954;BME280;7049;49.444;8.522;2023-02-10T13:52:04;80034.72;;;-3.47;42.38
13954;BME280;7049;49.444;8.522;2023-02-10T13:57:26;80015.88;;;-3.47;41.97
13954;BME280;7049;49.444;8.522;2023-02-10T14:02:29;80036.81;;;-3.47;42.34
13954;BME280;7049;49.444;8.522;2023-02-10T14:07:34;80064.03;;;-3.47;42.67
13954;BME280;7049;49.444;8.522;2023-02-10T14:12:36;80074.50;;;-3.47;42.78
13954;BME280;7049;49.444;8.522;2023-02-10T14:17:39;80087.06;;;-3.47;43.03
13954;BME280;7049;49.444;8.522;2023-02-10T14:22:40;80105.91;;;-3.47;43.80
13954;BME280;7049;49.444;8.522;2023-02-10T14:27:46;80108.00;;;-3.47;43.15
13954;BME280;7049;49.444;8.522;2023-02-10T14:32:51;80110.09;;;-3.47;43.05
13954;BME280;7049;49.444;8.522;2023-02-10T14:37:55;80118.47;;;-3.47;43.15
13954;BME280;7049;49.444;8.522;2023-02-10T14:42:58;80131.03;;;-3.47;43.84
13954;BME280;7049;49.444;8.522;2023-02-10T14:48:05;80128.94;;;-3.47;43.18
13954;BME280;7049;49.444;8.522;2023-02-10T14:53:16;80133.13;;;-3.47;43.96
13954;BME280;7049;49.444;8.522;2023-02-10T14:58:18;80133.13;;;-3.47;43.94
13954;BME280;7049;49.444;8.522;2023-02-10T15:03:23;80128.94;;;-3.47;44.08
13954;BME280;7049;49.444;8.522;2023-02-10T15:08:32;80145.69;;;-3.47;44.73
13954;BME280;7049;49.444;8.522;2023-02-10T15:13:39;80158.25;;;-3.47;45.13
13954;BME280;7049;49.444;8.522;2023-02-10T15:18:47;80156.16;;;-3.47;45.47
13954;BME280;7049;49.444;8.522;2023-02-10T15:23:49;80156.16;;;-3.47;45.27
13954;BME280;7049;49.444;8.522;2023-02-10T15:28:59;80156.16;;;-3.47;45.44
13954;BME280;7049;49.444;8.522;2023-02-10T15:34:15;80164.53;;;-3.47;46.23
13954;BME280;7049;49.444;8.522;2023-02-10T15:39:22;80164.53;;;-3.47;46.38
13954;BME280;7049;49.444;8.522;2023-02-10T15:44:42;80166.63;;;-3.47;46.84
13954;BME280;7049;49.444;8.522;2023-02-10T15:49:46;80166.63;;;-3.47;46.56
13954;BME280;7049;49.444;8.522;2023-02-10T15:54:48;80170.81;;;-3.47;47.05
13954;BME280;7049;49.444;8.522;2023-02-10T15:59:51;80170.81;;;-3.47;47.96
13954;BME280;7049;49.444;8.522;2023-02-10T16:04:55;80170.81;;;-3.47;48.12
13954;BME280;7049;49.444;8.522;2023-02-10T16:09:56;80185.47;;;-3.47;48.89
13954;BME280;7049;49.444;8.522;2023-02-10T16:14:58;80187.56;;;-3.47;49.22
13954;BME280;7049;49.444;8.522;2023-02-10T16:20:01;80198.03;;;-3.47;49.96
13954;BME280;7049;49.444;8.522;2023-02-10T16:25:03;80216.88;;;-3.47;50.74
13954;BME280;7049;49.444;8.522;2023-02-10T16:30:05;80237.81;;;-3.47;51.54
13954;BME280;7049;49.444;8.522;2023-02-10T16:35:08;80250.38;;;-3.47;52.50
13954;BME280;7049;49.444;8.522;2023-02-10T16:40:14;80279.69;;;-3.47;54.08
13954;BME280;7049;49.444;8.522;2023-02-10T16:45:18;80304.81;;;-3.47;55.27
13954;BME280;7049;49.444;8.522;2023-02-10T16:50:24;80325.75;;;-3.47;56.15
13954;BME280;7049;49.444;8.522;2023-02-10T16:55:27;80348.81;;;-3.47;57.07
13954;BME280;7049;49.444;8.522;2023-02-10T17:00:28;80365.56;;;-3.47;57.73
13954;BME280;7049;49.444;8.522;2023-02-10T17:05:31;80392.78;;;-3.47;58.75
13954;BME280;7049;49.444;8.522;2023-02-10T17:10:33;80417.91;;;-3.47;59.29
13954;BME280;7049;49.444;8.522;2023-02-10T17:15:35;80432.56;;;-3.47;60.06
13954;BME280;7049;49.444;8.522;2023-02-10T17:20:38;80468.16;;;-3.47;60.70
13954;BME280;7049;49.444;8.522;2023-02-10T17:25:39;80489.09;;;-3.47;61.43
13954;BME280;7049;49.444;8.522;2023-02-10T17:30:41;80507.94;;;-3.47;62.31
13954;BME280;7049;49.444;8.522;2023-02-10T17:35:46;80528.88;;;-3.47;63.09
13954;BME280;7049;49.444;8.522;2023-02-10T17:40:48;80556.13;;;-3.47;63.56
13954;BME280;7049;49.444;8.522;2023-02-10T17:45:49;80572.88;;;-3.47;64.08
13954;BME280;7049;49.444;8.522;2023-02-10T17:50:52;80585.44;;;-3.47;65.04
13954;BME280;7049;49.444;8.522;2023-02-10T17:55:54;80598.00;;;-3.47;65.50
13954;BME280;7049;49.444;8.522;2023-02-10T18:00:56;80610.56;;;-3.47;66.43
13954;BME280;7049;49.444;8.522;2023-02-10T18:05:59;80627.31;;;-3.47;67.43
13954;BME280;7049;49.444;8.522;2023-02-10T18:11:00;80652.44;;;-3.47;67.83
13954;BME280;7049;49.444;8.522;2023-02-10T18:16:02;80677.56;;;-3.47;68.39
13954;BME280;7049;49.444;8.522;2023-02-10T18:21:05;80694.34;;;-3.47;68.53
13954;BME280;7049;49.444;8.522;2023-02-10T18:26:06;80702.72;;;-3.47;69.04
13954;BME280;7049;49.444;8.522;2023-02-10T18:31:08;80725.75;;;-3.47;69.69
13954;BME280;7049;49.444;8.522;2023-02-10T18:36:15;80744.59;;;-3.47;70.73
13954;BME280;7049;49.444;8.522;2023-02-10T18:41:17;80750.88;;;-3.47;71.75
13954;BME280;7049;49.444;8.522;2023-02-10T18:46:19;80757.16;;;-3.47;72.85
13954;BME280;7049;49.444;8.522;2023-02-10T18:51:22;80773.91;;;-3.47;75.11
13954;BME280;7049;49.444;8.522;2023-02-10T18:56:24;80773.91;;;-3.47;75.54
13954;BME280;7049;49.444;8.522;2023-02-10T19:01:25;80778.09;;;-3.47;75.99
13954;BME280;7049;49.444;8.522;2023-02-10T19:06:28;80790.66;;;-3.47;76.03
13954;BME280;7049;49.444;8.522;2023-02-10T19:11:30;80807.41;;;-3.47;76.19
13954;BME280;7049;49.444;8.522;2023-02-10T19:16:32;80819.97;;;-3.47;76.42
13954;BME280;7049;49.444;8.522;2023-02-10T19:21:35;80830.47;;;-3.47;76.11
13954;BME280;7049;49.444;8.522;2023-02-10T19:26:36;80847.22;;;-3.47;76.13
13954;BME280;7049;49.444;8.522;2023-02-10T19:31:38;80859.78;;;-3.47;76.66
13954;BME280;7049;49.444;8.522;2023-02-10T19:36:41;80859.78;;;-3.47;76.71
13954;BME280;7049;49.444;8.522;2023-02-10T19:41:45;80874.44;;;-3.47;77.20
13954;BME280;7049;49.444;8.522;2023-02-10T19:46:47;80889.09;;;-3.47;77.33
13954;BME280;7049;49.444;8.522;2023-02-10T19:51:50;80891.19;;;-3.47;78.54
13954;BME280;7049;49.444;8.522;2023-02-10T19:56:51;80895.38;;;-3.47;78.92
13954;BME280;7049;49.444;8.522;2023-02-10T20:01:53;80905.84;;;-3.47;79.15
13954;BME280;7049;49.444;8.522;2023-02-10T20:06:56;80916.31;;;-3.47;79.75
13954;BME280;7049;49.444;8.522;2023-02-10T20:11:57;80918.41;;;-3.47;80.29
13954;BME280;7049;49.444;8.522;2023-02-10T20:16:59;80916.31;;;-3.47;80.51
13954;BME280;7049;49.444;8.522;2023-02-10T20:22:02;80924.69;;;-3.47;80.28
13954;BME280;7049;49.444;8.522;2023-02-10T20:27:04;80922.59;;;-3.47;80.38
13954;BME280;7049;49.444;8.522;2023-02-10T20:32:05;80920.50;;;-3.47;81.13
13954;BME280;7049;49.444;8.522;2023-02-10T20:37:09;80926.78;;;-3.47;81.44
13954;BME280;7049;49.444;8.522;2023-02-10T20:42:11;80922.59;;;-3.47;81.77
13954;BME280;7049;49.444;8.522;2023-02-10T20:47:12;80924.69;;;-3.47;82.79
13954;BME280;7049;49.444;8.522;2023-02-10T20:52:15;80916.31;;;-3.47;82.93
13954;BME280;7049;49.444;8.522;2023-02-10T20:57:16;80916.31;;;-3.47;83.26
13954;BME280;7049;49.444;8.522;2023-02-10T21:02:18;80920.50;;;-3.47;83.70
13954;BME280;7049;49.444;8.522;2023-02-10T21:07:21;80918.41;;;-3.47;83.49
13954;BME280;7049;49.444;8.522;2023-02-10T21:12:23;80928.88;;;-3.47;84.00
13954;BME280;7049;49.444;8.522;2023-02-10T21:17:24;80937.28;;;-3.47;84.26
13954;BME280;7049;49.444;8.522;2023-02-10T21:22:27;80941.47;;;-3.47;84.22
13954;BME280;7049;49.444;8.522;2023-02-10T21:27:29;80943.56;;;-3.47;84.35
13954;BME280;7049;49.444;8.522;2023-02-10T21:32:31;80954.03;;;-3.47;84.49
13954;BME280;7049;49.444;8.522;2023-02-10T21:37:34;80956.13;;;-3.47;84.64
13954;BME280;7049;49.444;8.522;2023-02-10T21:42:35;80962.41;;;-3.47;84.95
13954;BME280;7049;49.444;8.522;2023-02-10T21:47:37;80970.78;;;-3.47;84.74
13954;BME280;7049;49.444;8.522;2023-02-10T21:52:40;80972.88;;;-3.47;84.68
13954;BME280;7049;49.444;8.522;2023-02-10T21:57:41;80979.16;;;-3.47;84.48
13954;BME280;7049;49.444;8.522;2023-02-10T22:02:42;80981.25;;;-3.47;84.35
13954;BME280;7049;49.444;8.522;2023-02-10T22:07:45;80989.63;;;-3.47;84.99
13954;BME280;7049;49.444;8.522;2023-02-10T22:12:46;80995.91;;;-3.47;85.09
13954;BME280;7049;49.444;8.522;2023-02-10T22:17:48;80993.81;;;-3.47;85.10
13954;BME280;7049;49.444;8.522;2023-02-10T22:22:51;81000.09;;;-3.47;85.68
13954;BME280;7049;49.444;8.522;2023-02-10T22:27:52;81010.56;;;-3.47;85.55
13954;BME280;7049;49.444;8.522;2023-02-10T22:32:53;81008.47;;;-3.47;86.03
13954;BME280;7049;49.444;8.522;2023-02-10T22:37:56;81008.47;;;-3.47;86.41
13954;BME280;7049;49.444;8.522;2023-02-10T22:42:58;81006.38;;;-3.47;86.36
13954;BME280;7049;49.444;8.522;2023-02-10T22:47:59;81004.28;;;-3.47;86.91
13954;BME280;7049;49.444;8.522;2023-02-10T22:53:02;81008.47;;;-3.47;86.89
13954;BME280;7049;49.444;8.522;2023-02-10T22:58:04;81008.47;;;-3.47;87.73
13954;BME280;7049;49.444;8.522;2023-02-10T23:03:06;81004.28;;;-3.47;88.18
13954;BME280;7049;49.444;8.522;2023-02-10T23:08:08;81016.84;;;-3.47;88.13
13954;BME280;7049;49.444;8.522;2023-02-10T23:13:10;81012.66;;;-3.47;88.44
13954;BME280;7049;49.444;8.522;2023-02-10T23:18:11;81012.66;;;-3.47;88.64
13954;BME280;7049;49.444;8.522;2023-02-10T23:23:14;81008.47;;;-3.47;88.74
13954;BME280;7049;49.444;8.522;2023-02-10T23:28:16;81010.56;;;-3.47;89.12
13954;BME280;7049;49.444;8.522;2023-02-10T23:33:19;81002.19;;;-3.47;88.83
13954;BME280;7049;49.444;8.522;2023-02-10T23:38:21;81010.56;;;-3.47;88.94
13954;BME280;7049;49.444;8.522;2023-02-10T23:43:23;81014.75;;;-3.47;88.74
13954;BME280;7049;49.444;8.522;2023-02-10T23:48:25;81029.41;;;-3.47;88.36
13954;BME280;7049;49.444;8.522;2023-02-10T23:53:27;81033.59;;;-3.47;87.95
13954;BME280;7049;49.444;8.522;2023-02-10T23:58:29;81037.81;;;-3.47;87.92
